sensor_id;sensor_type;location;lat;lon;timestamp;temperature;humidity
22430;DHT22;11382;48.086;11.632;2024-02-16T00:02:19;4.00;99.90
22430;DHT22;11382;48.086;11.632;2024-02-16T00:04:47;3.90;99.90
22430;DHT22;11382;48.086;11.632;2024-02-16T00:07:15;4.20;99.90
22430;DHT22;11382;48.086;11.632;2024-02-16T00:09:45;4.40;99.90
22430;DHT22;11382;48.086;11.632;2024-02-16T00:12:13;4.40;99.90
22430;DHT22;11382;48.086;11.632;2024-02-16T00:14:41;4.40;99.90
22430;DHT22;11382;48.086;11.632;2024-02-16T00:17:09;4.30;99.90
22430;DHT22;11382;48.086;11.632;2024-02-16T00:19:37;4.30;99.90
22430;DHT22;11382;48.086;11.632;2024-02-16T00:22:06;4.20;99.90
22430;DHT22;11382;48.086;11.632;2024-02-16T00:24:35;3.90;99.90
22430;DHT22;11382;48.086;11.632;2024-02-16T00:27:05;4.00;99.90
22430;DHT22;11382;48.086;11.632;2024-02-16T00:29:33;4.00;99.90
22430;DHT22;11382;48.086;11.632;2024-02-16T00:32:01;4.00;99.90
22430;DHT22;11382;48.086;11.632;2024-02-16T00:34:29;4.00;99.90
22430;DHT22;11382;48.086;11.632;2024-02-16T00:36:57;4.00;99.90
22430;DHT22;11382;48.086;11.632;2024-02-16T00:39:25;4.00;99.90
22430;DHT22;11382;48.086;11.632;2024-02-16T00:41:54;4.00;99.90
22430;DHT22;11382;48.086;11.632;2024-02-16T00:44:23;4.00;99.90
22430;DHT22;11382;48.086;11.632;2024-02-16T00:46:51;3.90;99.90
22430;DHT22;11382;48.086;11.632;2024-02-16T00:49:19;3.80;99.90
22430;DHT22;11382;48.086;11.632;2024-02-16T00:51:47;3.90;99.90
22430;DHT22;11382;48.086;11.632;2024-02-16T00:54:18;3.80;99.90
22430;DHT22;11382;48.086;11.632;2024-02-16T00:56:47;3.90;99.90
22430;DHT22;11382;48.086;11.632;2024-02-16T00:59:15;3.80;99.90
22430;DHT22;11382;48.086;11.632;2024-02-16T01:01:45;3.70;99.90
22430;DHT22;11382;48.086;11.632;2024-02-16T01:04:13;3.60;99.90
22430;DHT22;11382;48.086;11.632;2024-02-16T01:06:41;3.50;99.90
22430;DHT22;11382;48.086;11.632;2024-02-16T01:09:09;3.50;99.90
22430;DHT22;11382;48.086;11.632;2024-02-16T01:11:41;3.50;99.90
22430;DHT22;11382;48.086;11.632;2024-02-16T01:14:09;3.50;99.90
22430;DHT22;11382;48.086;11.632;2024-02-16T01:16:37;3.50;99.90
22430;DHT22;11382;48.086;11.632;2024-02-16T01:19:06;3.50;99.90
22430;DHT22;11382;48.086;11.632;2024-02-16T01:21:34;3.40;99.90
22430;DHT22;11382;48.086;11.632;2024-02-16T01:24:03;3.40;99.90
22430;DHT22;11382;48.086;11.632;2024-02-16T01:26:31;3.30;99.90
22430;DHT22;11382;48.086;11.632;2024-02-16T01:29:00;3.40;99.90
22430;DHT22;11382;48.086;11.632;2024-02-16T01:31:29;3.50;99.90
22430;DHT22;11382;48.086;11.632;2024-02-16T01:33:57;3.60;99.90
22430;DHT22;11382;48.086;11.632;2024-02-16T01:36:26;3.60;99.90
22430;DHT22;11382;48.086;11.632;2024-02-16T01:38:54;3.50;99.90
22430;DHT22;11382;48.086;11.632;2024-02-16T01:41:23;3.50;99.90
22430;DHT22;11382;48.086;11.632;2024-02-16T01:43:52;3.40;99.90
22430;DHT22;11382;48.086;11.632;2024-02-16T01:46:21;3.40;99.90
22430;DHT22;11382;48.086;11.632;2024-02-16T01:48:50;3.50;99.90
22430;DHT22;11382;48.086;11.632;2024-02-16T01:51:19;3.50;99.90
22430;DHT22;11382;48.086;11.632;2024-02-16T01:53:49;3.50;99.90
22430;DHT22;11382;48.086;11.632;2024-02-16T01:56:17;3.50;99.90
22430;DHT22;11382;48.086;11.632;2024-02-16T01:58:47;3.50;99.90
22430;DHT22;11382;48.086;11.632;2024-02-16T02:01:18;3.60;99.90
22430;DHT22;11382;48.086;11.632;2024-02-16T02:03:46;3.70;99.90
22430;DHT22;11382;48.086;11.632;2024-02-16T02:06:14;3.80;99.90
22430;DHT22;11382;48.086;11.632;2024-02-16T02:08:42;3.90;99.90
22430;DHT22;11382;48.086;11.632;2024-02-16T02:11:12;3.90;99.90
22430;DHT22;11382;48.086;11.632;2024-02-16T02:13:40;3.90;99.90
22430;DHT22;11382;48.086;11.632;2024-02-16T02:16:10;3.90;99.90
22430;DHT22;11382;48.086;11.632;2024-02-16T02:18:38;3.90;99.90
22430;DHT22;11382;48.086;11.632;2024-02-16T02:21:06;3.90;99.90
22430;DHT22;11382;48.086;11.632;2024-02-16T02:23:36;4.00;99.90
22430;DHT22;11382;48.086;11.632;2024-02-16T02:26:04;4.00;99.90
22430;DHT22;11382;48.086;11.632;2024-02-16T02:28:32;4.00;99.90
22430;DHT22;11382;48.086;11.632;2024-02-16T02:31:01;4.00;99.90
22430;DHT22;11382;48.086;11.632;2024-02-16T02:33:30;4.10;99.90
22430;DHT22;11382;48.086;11.632;2024-02-16T02:35:58;4.00;99.90
22430;DHT22;11382;48.086;11.632;2024-02-16T02:38:26;4.00;99.90
22430;DHT22;11382;48.086;11.632;2024-02-16T02:40:55;4.10;99.90
22430;DHT22;11382;48.086;11.632;2024-02-16T02:43:24;4.10;99.90
22430;DHT22;11382;48.086;11.632;2024-02-16T02:45:51;4.10;99.90
22430;DHT22;11382;48.086;11.632;2024-02-16T02:48:19;4.20;99.90
22430;DHT22;11382;48.086;11.632;2024-02-16T02:50:48;4.20;99.90
22430;DHT22;11382;48.086;11.632;2024-02-16T02:53:16;4.20;99.90
22430;DHT22;11382;48.086;11.632;2024-02-16T02:55:45;4.10;99.90
22430;DHT22;11382;48.086;11.632;2024-02-16T02:58:14;3.90;99.90
22430;DHT22;11382;48.086;11.632;2024-02-16T03:00:42;3.80;99.90
22430;DHT22;11382;48.086;11.632;2024-02-16T03:03:11;3.90;99.90
22430;DHT22;11382;48.086;11.632;2024-02-16T03:05:41;4.00;99.90
22430;DHT22;11382;48.086;11.632;2024-02-16T03:08:09;4.10;99.90
22430;DHT22;11382;48.086;11.632;2024-02-16T03:10:38;4.10;99.90
22430;DHT22;11382;48.086;11.632;2024-02-16T03:13:06;4.20;99.90
22430;DHT22;11382;48.086;11.632;2024-02-16T03:15:37;4.20;99.90
22430;DHT22;11382;48.086;11.632;2024-02-16T03:18:05;4.10;99.90
22430;DHT22;11382;48.086;11.632;2024-02-16T03:20:36;4.00;99.90
22430;DHT22;11382;48.086;11.632;2024-02-16T03:23:04;4.10;99.90
22430;DHT22;11382;48.086;11.632;2024-02-16T03:25:32;4.20;99.90
22430;DHT22;11382;48.086;11.632;2024-02-16T03:28:01;4.20;99.90
22430;DHT22;11382;48.086;11.632;2024-02-16T03:30:29;4.20;99.90
22430;DHT22;11382;48.086;11.632;2024-02-16T03:32:58;4.20;99.90
22430;DHT22;11382;48.086;11.632;2024-02-16T03:35:26;4.10;99.90
22430;DHT22;11382;48.086;11.632;2024-02-16T03:37:54;4.10;99.90
22430;DHT22;11382;48.086;11.632;2024-02-16T03:40:24;4.00;99.90
22430;DHT22;11382;48.086;11.632;2024-02-16T03:42:52;4.10;99.90
22430;DHT22;11382;48.086;11.632;2024-02-16T03:45:20;4.20;99.90
22430;DHT22;11382;48.086;11.632;2024-02-16T03:47:49;4.20;99.90
22430;DHT22;11382;48.086;11.632;2024-02-16T03:50:21;4.20;99.90
22430;DHT22;11382;48.086;11.632;2024-02-16T03:52:49;4.10;99.90
22430;DHT22;11382;48.086;11.632;2024-02-16T03:55:18;4.20;99.90
22430;DHT22;11382;48.086;11.632;2024-02-16T03:57:46;4.10;99.90
22430;DHT22;11382;48.086;11.632;2024-02-16T04:00:15;4.10;99.90
22430;DHT22;11382;48.086;11.632;2024-02-16T04:02:43;4.00;99.90
22430;DHT22;11382;48.086;11.632;2024-02-16T04:05:12;4.10;99.90
22430;DHT22;11382;48.086;11.632;2024-02-16T04:07:41;4.10;99.90
22430;DHT22;11382;48.086;11.632;2024-02-16T04:10:09;4.10;99.90
22430;DHT22;11382;48.086;11.632;2024-02-16T04:12:37;4.10;99.90
22430;DHT22;11382;48.086;11.632;2024-02-16T04:15:06;4.00;99.90
22430;DHT22;11382;48.086;11.632;2024-02-16T04:17:34;4.10;99.90
22430;DHT22;11382;48.086;11.632;2024-02-16T04:20:02;4.10;99.90
22430;DHT22;11382;48.086;11.632;2024-02-16T04:22:30;4.10;99.90
22430;DHT22;11382;48.086;11.632;2024-02-16T04:25:05;4.10;99.90
22430;DHT22;11382;48.086;11.632;2024-02-16T04:27:33;4.10;99.90
22430;DHT22;11382;48.086;11.632;2024-02-16T04:30:02;4.10;99.90
22430;DHT22;11382;48.086;11.632;2024-02-16T04:32:30;4.10;99.90
22430;DHT22;11382;48.086;11.632;2024-02-16T04:34:59;4.10;99.90
22430;DHT22;11382;48.086;11.632;2024-02-16T04:37:28;4.00;99.90
22430;DHT22;11382;48.086;11.632;2024-02-16T04:39:56;4.10;99.90
22430;DHT22;11382;48.086;11.632;2024-02-16T04:42:25;4.20;99.90
22430;DHT22;11382;48.086;11.632;2024-02-16T04:44:53;4.10;99.90
22430;DHT22;11382;48.086;11.632;2024-02-16T04:47:21;4.20;99.90
22430;DHT22;11382;48.086;11.632;2024-02-16T04:49:49;4.20;99.90
22430;DHT22;11382;48.086;11.632;2024-02-16T04:52:17;4.30;99.90
22430;DHT22;11382;48.086;11.632;2024-02-16T04:54:45;4.30;99.90
22430;DHT22;11382;48.086;11.632;2024-02-16T04:57:13;4.30;99.90
22430;DHT22;11382;48.086;11.632;2024-02-16T04:59:43;4.30;99.90
22430;DHT22;11382;48.086;11.632;2024-02-16T05:02:10;4.40;99.90
22430;DHT22;11382;48.086;11.632;2024-02-16T05:04:39;4.50;99.90
22430;DHT22;11382;48.086;11.632;2024-02-16T05:07:07;4.50;99.90
22430;DHT22;11382;48.086;11.632;2024-02-16T05:09:35;4.60;99.90
22430;DHT22;11382;48.086;11.632;2024-02-16T05:12:03;4.60;99.90
22430;DHT22;11382;48.086;11.632;2024-02-16T05:14:31;4.70;99.90
22430;DHT22;11382;48.086;11.632;2024-02-16T05:17:01;4.70;99.90
22430;DHT22;11382;48.086;11.632;2024-02-16T05:19:32;4.70;99.90
22430;DHT22;11382;48.086;11.632;2024-02-16T05:22:00;4.80;99.90
22430;DHT22;11382;48.086;11.632;2024-02-16T05:24:28;4.80;99.90
22430;DHT22;11382;48.086;11.632;2024-02-16T05:26:57;4.80;99.90
22430;DHT22;11382;48.086;11.632;2024-02-16T05:29:25;4.80;99.90
22430;DHT22;11382;48.086;11.632;2024-02-16T05:31:54;4.90;99.90
22430;DHT22;11382;48.086;11.632;2024-02-16T05:34:23;4.90;99.90
22430;DHT22;11382;48.086;11.632;2024-02-16T05:36:52;4.90;99.90
22430;DHT22;11382;48.086;11.632;2024-02-16T05:39:20;5.00;99.90
22430;DHT22;11382;48.086;11.632;2024-02-16T05:41:53;5.10;99.90
22430;DHT22;11382;48.086;11.632;2024-02-16T05:44:21;5.20;99.90
22430;DHT22;11382;48.086;11.632;2024-02-16T05:46:49;5.20;99.90
22430;DHT22;11382;48.086;11.632;2024-02-16T05:49:17;5.20;99.90
22430;DHT22;11382;48.086;11.632;2024-02-16T05:51:48;5.20;99.90
22430;DHT22;11382;48.086;11.632;2024-02-16T05:54:44;5.20;99.90
22430;DHT22;11382;48.086;11.632;2024-02-16T05:57:13;5.20;99.90
22430;DHT22;11382;48.086;11.632;2024-02-16T05:59:41;4.80;99.90
22430;DHT22;11382;48.086;11.632;2024-02-16T06:02:09;4.80;99.90
22430;DHT22;11382;48.086;11.632;2024-02-16T06:04:38;4.80;99.90
22430;DHT22;11382;48.086;11.632;2024-02-16T06:07:08;5.00;99.90
22430;DHT22;11382;48.086;11.632;2024-02-16T06:09:38;5.10;99.90
22430;DHT22;11382;48.086;11.632;2024-02-16T06:12:06;5.10;99.90
22430;DHT22;11382;48.086;11.632;2024-02-16T06:14:36;5.20;99.90
22430;DHT22;11382;48.086;11.632;2024-02-16T06:17:04;5.20;99.90
22430;DHT22;11382;48.086;11.632;2024-02-16T06:19:32;5.20;99.90
22430;DHT22;11382;48.086;11.632;2024-02-16T06:22:00;5.30;99.90
22430;DHT22;11382;48.086;11.632;2024-02-16T06:24:30;5.30;99.90
22430;DHT22;11382;48.086;11.632;2024-02-16T06:26:58;5.40;99.90
22430;DHT22;11382;48.086;11.632;2024-02-16T06:29:26;5.40;99.90
22430;DHT22;11382;48.086;11.632;2024-02-16T06:31:54;5.40;99.90
22430;DHT22;11382;48.086;11.632;2024-02-16T06:34:22;5.40;99.90
22430;DHT22;11382;48.086;11.632;2024-02-16T06:36:51;5.40;99.90
22430;DHT22;11382;48.086;11.632;2024-02-16T06:39:19;5.30;99.90
22430;DHT22;11382;48.086;11.632;2024-02-16T06:41:48;5.50;99.90
22430;DHT22;11382;48.086;11.632;2024-02-16T06:44:17;5.70;99.90
22430;DHT22;11382;48.086;11.632;2024-02-16T06:46:50;5.90;99.90
22430;DHT22;11382;48.086;11.632;2024-02-16T06:49:18;6.20;99.90
22430;DHT22;11382;48.086;11.632;2024-02-16T06:51:46;6.40;99.90
22430;DHT22;11382;48.086;11.632;2024-02-16T06:54:14;6.50;99.90
22430;DHT22;11382;48.086;11.632;2024-02-16T06:56:42;6.60;99.90
22430;DHT22;11382;48.086;11.632;2024-02-16T06:59:12;6.80;99.90
22430;DHT22;11382;48.086;11.632;2024-02-16T07:01:40;7.00;99.90
22430;DHT22;11382;48.086;11.632;2024-02-16T07:04:08;7.20;99.90
22430;DHT22;11382;48.086;11.632;2024-02-16T07:06:37;7.40;99.90
22430;DHT22;11382;48.086;11.632;2024-02-16T07:09:05;7.50;99.90
22430;DHT22;11382;48.086;11.632;2024-02-16T07:11:33;7.70;99.90
22430;DHT22;11382;48.086;11.632;2024-02-16T07:14:02;7.80;99.90
22430;DHT22;11382;48.086;11.632;2024-02-16T07:16:34;7.90;99.90
22430;DHT22;11382;48.086;11.632;2024-02-16T07:19:04;8.10;99.90
22430;DHT22;11382;48.086;11.632;2024-02-16T07:21:32;8.40;99.90
22430;DHT22;11382;48.086;11.632;2024-02-16T07:24:00;8.40;99.90
22430;DHT22;11382;48.086;11.632;2024-02-16T07:26:28;8.70;99.90
22430;DHT22;11382;48.086;11.632;2024-02-16T07:28:57;8.90;99.90
22430;DHT22;11382;48.086;11.632;2024-02-16T07:31:25;8.70;99.90
22430;DHT22;11382;48.086;11.632;2024-02-16T07:33:54;8.60;99.90
22430;DHT22;11382;48.086;11.632;2024-02-16T07:36:22;9.00;99.90
22430;DHT22;11382;48.086;11.632;2024-02-16T07:38:50;9.20;99.90
22430;DHT22;11382;48.086;11.632;2024-02-16T07:41:18;9.40;99.90
22430;DHT22;11382;48.086;11.632;2024-02-16T07:43:46;9.50;99.90
22430;DHT22;11382;48.086;11.632;2024-02-16T07:46:14;9.70;99.90
22430;DHT22;11382;48.086;11.632;2024-02-16T07:48:43;9.90;99.90
22430;DHT22;11382;48.086;11.632;2024-02-16T07:51:12;10.00;99.90
22430;DHT22;11382;48.086;11.632;2024-02-16T07:53:40;10.20;99.90
22430;DHT22;11382;48.086;11.632;2024-02-16T07:56:11;10.30;99.90
22430;DHT22;11382;48.086;11.632;2024-02-16T07:58:41;10.70;99.90
22430;DHT22;11382;48.086;11.632;2024-02-16T08:01:11;11.10;99.90
22430;DHT22;11382;48.086;11.632;2024-02-16T08:03:42;11.50;99.90
22430;DHT22;11382;48.086;11.632;2024-02-16T08:06:10;12.00;99.90
22430;DHT22;11382;48.086;11.632;2024-02-16T08:08:40;12.10;99.90
22430;DHT22;11382;48.086;11.632;2024-02-16T08:11:08;13.00;99.90
22430;DHT22;11382;48.086;11.632;2024-02-16T08:13:36;13.80;99.90
22430;DHT22;11382;48.086;11.632;2024-02-16T08:16:04;13.80;99.90
22430;DHT22;11382;48.086;11.632;2024-02-16T08:18:34;13.50;99.90
22430;DHT22;11382;48.086;11.632;2024-02-16T08:21:02;13.40;99.90
22430;DHT22;11382;48.086;11.632;2024-02-16T08:23:30;13.10;99.90
22430;DHT22;11382;48.086;11.632;2024-02-16T08:26:00;13.10;99.90
22430;DHT22;11382;48.086;11.632;2024-02-16T08:28:28;13.20;99.90
22430;DHT22;11382;48.086;11.632;2024-02-16T08:30:56;13.40;99.90
22430;DHT22;11382;48.086;11.632;2024-02-16T08:33:24;13.50;99.90
22430;DHT22;11382;48.086;11.632;2024-02-16T08:35:52;13.60;99.90
22430;DHT22;11382;48.086;11.632;2024-02-16T08:38:20;13.90;99.90
22430;DHT22;11382;48.086;11.632;2024-02-16T08:40:48;13.90;99.90
22430;DHT22;11382;48.086;11.632;2024-02-16T08:43:20;14.00;99.90
22430;DHT22;11382;48.086;11.632;2024-02-16T08:45:50;14.00;99.90
22430;DHT22;11382;48.086;11.632;2024-02-16T08:48:18;14.30;99.90
22430;DHT22;11382;48.086;11.632;2024-02-16T08:50:46;14.50;99.90
22430;DHT22;11382;48.086;11.632;2024-02-16T08:53:16;14.80;99.90
22430;DHT22;11382;48.086;11.632;2024-02-16T08:55:44;15.00;99.90
22430;DHT22;11382;48.086;11.632;2024-02-16T08:58:12;15.40;99.90
22430;DHT22;11382;48.086;11.632;2024-02-16T09:00:42;15.70;99.90
22430;DHT22;11382;48.086;11.632;2024-02-16T09:03:11;15.60;99.90
22430;DHT22;11382;48.086;11.632;2024-02-16T09:05:39;15.70;99.90
22430;DHT22;11382;48.086;11.632;2024-02-16T09:08:07;16.00;99.90
22430;DHT22;11382;48.086;11.632;2024-02-16T09:10:36;16.30;99.40
22430;DHT22;11382;48.086;11.632;2024-02-16T09:13:04;16.40;99.10
22430;DHT22;11382;48.086;11.632;2024-02-16T09:15:32;16.50;99.10
22430;DHT22;11382;48.086;11.632;2024-02-16T09:18:02;16.90;98.10
22430;DHT22;11382;48.086;11.632;2024-02-16T09:20:30;17.20;97.50
22430;DHT22;11382;48.086;11.632;2024-02-16T09:22:58;17.40;96.30
22430;DHT22;11382;48.086;11.632;2024-02-16T09:25:27;17.50;95.60
22430;DHT22;11382;48.086;11.632;2024-02-16T09:27:55;17.60;94.80
22430;DHT22;11382;48.086;11.632;2024-02-16T09:30:23;17.70;94.70
22430;DHT22;11382;48.086;11.632;2024-02-16T09:32:51;17.50;94.10
22430;DHT22;11382;48.086;11.632;2024-02-16T09:35:20;17.70;94.50
22430;DHT22;11382;48.086;11.632;2024-02-16T09:37:48;17.80;93.50
22430;DHT22;11382;48.086;11.632;2024-02-16T09:40:17;18.00;93.00
22430;DHT22;11382;48.086;11.632;2024-02-16T09:42:48;18.00;92.30
22430;DHT22;11382;48.086;11.632;2024-02-16T09:45:17;18.00;92.50
22430;DHT22;11382;48.086;11.632;2024-02-16T09:47:46;18.00;92.00
22430;DHT22;11382;48.086;11.632;2024-02-16T09:50:28;18.20;92.20
22430;DHT22;11382;48.086;11.632;2024-02-16T09:52:56;18.20;91.30
22430;DHT22;11382;48.086;11.632;2024-02-16T09:55:25;18.20;90.40
22430;DHT22;11382;48.086;11.632;2024-02-16T09:57:58;18.00;91.20
22430;DHT22;11382;48.086;11.632;2024-02-16T10:00:27;18.60;90.50
22430;DHT22;11382;48.086;11.632;2024-02-16T10:02:55;19.10;90.70
22430;DHT22;11382;48.086;11.632;2024-02-16T10:05:24;19.30;86.30
22430;DHT22;11382;48.086;11.632;2024-02-16T10:07:53;19.40;84.60
22430;DHT22;11382;48.086;11.632;2024-02-16T10:10:22;19.30;85.30
22430;DHT22;11382;48.086;11.632;2024-02-16T10:12:50;19.30;84.10
22430;DHT22;11382;48.086;11.632;2024-02-16T10:15:20;19.70;83.70
22430;DHT22;11382;48.086;11.632;2024-02-16T10:17:58;20.40;82.80
22430;DHT22;11382;48.086;11.632;2024-02-16T10:20:27;21.80;77.10
22430;DHT22;11382;48.086;11.632;2024-02-16T10:23:06;22.50;74.50
22430;DHT22;11382;48.086;11.632;2024-02-16T10:25:34;23.00;72.10
22430;DHT22;11382;48.086;11.632;2024-02-16T10:28:05;22.80;69.70
22430;DHT22;11382;48.086;11.632;2024-02-16T10:30:35;22.70;69.40
22430;DHT22;11382;48.086;11.632;2024-02-16T10:33:06;23.20;69.00
22430;DHT22;11382;48.086;11.632;2024-02-16T10:35:35;24.20;65.50
22430;DHT22;11382;48.086;11.632;2024-02-16T10:38:05;25.20;62.70
22430;DHT22;11382;48.086;11.632;2024-02-16T10:40:38;25.90;60.50
22430;DHT22;11382;48.086;11.632;2024-02-16T10:43:07;26.30;58.70
22430;DHT22;11382;48.086;11.632;2024-02-16T10:45:37;26.70;57.00
22430;DHT22;11382;48.086;11.632;2024-02-16T10:48:07;28.20;54.90
22430;DHT22;11382;48.086;11.632;2024-02-16T10:50:36;28.10;53.40
22430;DHT22;11382;48.086;11.632;2024-02-16T10:53:10;26.60;52.70
22430;DHT22;11382;48.086;11.632;2024-02-16T10:55:40;24.30;54.40
22430;DHT22;11382;48.086;11.632;2024-02-16T10:58:10;23.10;56.90
22430;DHT22;11382;48.086;11.632;2024-02-16T11:00:48;23.00;59.20
22430;DHT22;11382;48.086;11.632;2024-02-16T11:03:18;23.10;58.70
22430;DHT22;11382;48.086;11.632;2024-02-16T11:05:50;23.20;60.20
22430;DHT22;11382;48.086;11.632;2024-02-16T11:08:20;23.90;58.60
22430;DHT22;11382;48.086;11.632;2024-02-16T11:10:55;24.40;56.90
22430;DHT22;11382;48.086;11.632;2024-02-16T11:13:24;23.90;55.80
22430;DHT22;11382;48.086;11.632;2024-02-16T11:15:59;24.60;57.20
22430;DHT22;11382;48.086;11.632;2024-02-16T11:18:29;25.10;56.40
22430;DHT22;11382;48.086;11.632;2024-02-16T11:21:00;26.10;55.10
22430;DHT22;11382;48.086;11.632;2024-02-16T11:23:31;26.80;54.50
22430;DHT22;11382;48.086;11.632;2024-02-16T11:26:02;27.40;52.50
22430;DHT22;11382;48.086;11.632;2024-02-16T11:28:34;27.00;52.80
22430;DHT22;11382;48.086;11.632;2024-02-16T11:31:03;28.10;51.20
22430;DHT22;11382;48.086;11.632;2024-02-16T11:33:31;28.60;51.10
22430;DHT22;11382;48.086;11.632;2024-02-16T11:36:00;28.50;51.30
22430;DHT22;11382;48.086;11.632;2024-02-16T11:38:32;28.30;52.00
22430;DHT22;11382;48.086;11.632;2024-02-16T11:41:02;28.20;52.00
22430;DHT22;11382;48.086;11.632;2024-02-16T11:43:31;27.40;52.20
22430;DHT22;11382;48.086;11.632;2024-02-16T11:46:10;27.50;53.70
22430;DHT22;11382;48.086;11.632;2024-02-16T11:48:38;27.60;53.20
22430;DHT22;11382;48.086;11.632;2024-02-16T11:51:07;27.00;53.40
22430;DHT22;11382;48.086;11.632;2024-02-16T11:53:36;26.10;54.50
22430;DHT22;11382;48.086;11.632;2024-02-16T11:56:06;25.60;56.10
22430;DHT22;11382;48.086;11.632;2024-02-16T11:58:34;25.40;55.90
22430;DHT22;11382;48.086;11.632;2024-02-16T12:01:10;25.00;57.20
22430;DHT22;11382;48.086;11.632;2024-02-16T12:03:41;25.00;57.60
22430;DHT22;11382;48.086;11.632;2024-02-16T12:06:19;25.40;56.10
22430;DHT22;11382;48.086;11.632;2024-02-16T12:08:50;25.70;56.80
22430;DHT22;11382;48.086;11.632;2024-02-16T12:11:20;25.90;57.30
22430;DHT22;11382;48.086;11.632;2024-02-16T12:13:49;25.70;56.10
22430;DHT22;11382;48.086;11.632;2024-02-16T12:16:18;25.40;56.90
22430;DHT22;11382;48.086;11.632;2024-02-16T12:18:47;25.70;56.50
22430;DHT22;11382;48.086;11.632;2024-02-16T12:21:17;25.50;56.60
22430;DHT22;11382;48.086;11.632;2024-02-16T12:23:47;24.60;57.60
22430;DHT22;11382;48.086;11.632;2024-02-16T12:26:17;23.10;59.40
22430;DHT22;11382;48.086;11.632;2024-02-16T12:28:45;22.00;61.80
22430;DHT22;11382;48.086;11.632;2024-02-16T12:31:18;21.30;64.00
22430;DHT22;11382;48.086;11.632;2024-02-16T12:33:46;21.00;67.40
22430;DHT22;11382;48.086;11.632;2024-02-16T12:36:15;21.00;66.20
22430;DHT22;11382;48.086;11.632;2024-02-16T12:38:44;20.80;67.50
22430;DHT22;11382;48.086;11.632;2024-02-16T12:41:12;20.70;67.50
22430;DHT22;11382;48.086;11.632;2024-02-16T12:43:41;20.60;67.40
22430;DHT22;11382;48.086;11.632;2024-02-16T12:46:09;20.40;69.00
22430;DHT22;11382;48.086;11.632;2024-02-16T12:48:37;20.20;69.00
22430;DHT22;11382;48.086;11.632;2024-02-16T12:51:05;20.20;70.20
22430;DHT22;11382;48.086;11.632;2024-02-16T12:53:34;20.30;69.60
22430;DHT22;11382;48.086;11.632;2024-02-16T12:56:07;20.30;70.50
22430;DHT22;11382;48.086;11.632;2024-02-16T12:58:36;20.40;72.50
22430;DHT22;11382;48.086;11.632;2024-02-16T13:01:06;20.50;71.50
22430;DHT22;11382;48.086;11.632;2024-02-16T13:03:45;20.30;71.70
22430;DHT22;11382;48.086;11.632;2024-02-16T13:06:13;20.10;71.60
22430;DHT22;11382;48.086;11.632;2024-02-16T13:08:42;20.00;72.30
22430;DHT22;11382;48.086;11.632;2024-02-16T13:11:10;20.10;72.70
22430;DHT22;11382;48.086;11.632;2024-02-16T13:13:39;20.10;72.80
22430;DHT22;11382;48.086;11.632;2024-02-16T13:16:08;20.10;73.50
22430;DHT22;11382;48.086;11.632;2024-02-16T13:18:37;19.80;74.50
22430;DHT22;11382;48.086;11.632;2024-02-16T13:21:05;19.90;75.70
22430;DHT22;11382;48.086;11.632;2024-02-16T13:23:33;19.90;76.30
22430;DHT22;11382;48.086;11.632;2024-02-16T13:26:01;20.00;75.10
22430;DHT22;11382;48.086;11.632;2024-02-16T13:28:30;20.10;75.50
22430;DHT22;11382;48.086;11.632;2024-02-16T13:30:59;20.10;75.90
22430;DHT22;11382;48.086;11.632;2024-02-16T13:33:29;20.10;75.80
22430;DHT22;11382;48.086;11.632;2024-02-16T13:35:57;20.00;75.60
22430;DHT22;11382;48.086;11.632;2024-02-16T13:38:25;20.00;75.50
22430;DHT22;11382;48.086;11.632;2024-02-16T13:40:53;20.00;76.00
22430;DHT22;11382;48.086;11.632;2024-02-16T13:43:22;19.90;74.60
22430;DHT22;11382;48.086;11.632;2024-02-16T13:45:51;19.70;75.00
22430;DHT22;11382;48.086;11.632;2024-02-16T13:48:19;19.60;75.60
22430;DHT22;11382;48.086;11.632;2024-02-16T13:50:50;19.40;76.80
22430;DHT22;11382;48.086;11.632;2024-02-16T13:53:18;19.50;76.40
22430;DHT22;11382;48.086;11.632;2024-02-16T13:55:49;19.50;77.10
22430;DHT22;11382;48.086;11.632;2024-02-16T13:58:17;19.40;77.40
22430;DHT22;11382;48.086;11.632;2024-02-16T14:00:45;19.20;77.90
22430;DHT22;11382;48.086;11.632;2024-02-16T14:03:14;19.10;79.20
22430;DHT22;11382;48.086;11.632;2024-02-16T14:05:45;19.20;79.60
22430;DHT22;11382;48.086;11.632;2024-02-16T14:08:15;19.10;80.30
22430;DHT22;11382;48.086;11.632;2024-02-16T14:10:44;19.20;80.00
22430;DHT22;11382;48.086;11.632;2024-02-16T14:13:12;19.20;80.20
22430;DHT22;11382;48.086;11.632;2024-02-16T14:15:40;19.20;80.60
22430;DHT22;11382;48.086;11.632;2024-02-16T14:18:09;19.20;80.80
22430;DHT22;11382;48.086;11.632;2024-02-16T14:20:47;19.10;81.70
22430;DHT22;11382;48.086;11.632;2024-02-16T14:23:17;19.20;81.70
22430;DHT22;11382;48.086;11.632;2024-02-16T14:25:45;19.20;81.00
22430;DHT22;11382;48.086;11.632;2024-02-16T14:28:13;19.30;81.40
22430;DHT22;11382;48.086;11.632;2024-02-16T14:30:41;19.40;81.80
22430;DHT22;11382;48.086;11.632;2024-02-16T14:33:10;19.30;81.70
22430;DHT22;11382;48.086;11.632;2024-02-16T14:35:38;19.30;81.50
22430;DHT22;11382;48.086;11.632;2024-02-16T14:38:07;19.30;81.80
22430;DHT22;11382;48.086;11.632;2024-02-16T14:40:36;19.20;81.70
22430;DHT22;11382;48.086;11.632;2024-02-16T14:43:05;19.20;82.10
22430;DHT22;11382;48.086;11.632;2024-02-16T14:45:34;19.20;81.60
22430;DHT22;11382;48.086;11.632;2024-02-16T14:48:05;19.00;82.20
22430;DHT22;11382;48.086;11.632;2024-02-16T14:50:34;18.90;82.60
22430;DHT22;11382;48.086;11.632;2024-02-16T14:53:02;18.80;83.40
22430;DHT22;11382;48.086;11.632;2024-02-16T14:55:30;18.90;83.40
22430;DHT22;11382;48.086;11.632;2024-02-16T14:58:00;18.90;83.40
22430;DHT22;11382;48.086;11.632;2024-02-16T15:00:28;19.00;83.90
22430;DHT22;11382;48.086;11.632;2024-02-16T15:02:56;19.00;83.50
22430;DHT22;11382;48.086;11.632;2024-02-16T15:05:26;19.00;83.60
22430;DHT22;11382;48.086;11.632;2024-02-16T15:07:54;18.90;83.70
22430;DHT22;11382;48.086;11.632;2024-02-16T15:10:22;18.60;84.70
22430;DHT22;11382;48.086;11.632;2024-02-16T15:12:51;18.40;85.40
22430;DHT22;11382;48.086;11.632;2024-02-16T15:15:20;18.20;86.20
22430;DHT22;11382;48.086;11.632;2024-02-16T15:17:49;18.20;87.20
22430;DHT22;11382;48.086;11.632;2024-02-16T15:20:17;18.20;88.70
22430;DHT22;11382;48.086;11.632;2024-02-16T15:22:46;18.00;87.80
22430;DHT22;11382;48.086;11.632;2024-02-16T15:25:19;17.80;88.80
22430;DHT22;11382;48.086;11.632;2024-02-16T15:27:47;17.50;89.70
22430;DHT22;11382;48.086;11.632;2024-02-16T15:30:16;17.30;90.20
22430;DHT22;11382;48.086;11.632;2024-02-16T15:32:45;17.00;90.40
22430;DHT22;11382;48.086;11.632;2024-02-16T15:35:15;16.80;90.90